createdAt,value
2023-03-05T00:00:27.039Z,0.00
2023-03-05T00:01:27.022Z,0.00
2023-03-05T00:02:27.059Z,0.00
2023-03-05T00:03:27.048Z,0.00
2023-03-05T00:04:26.998Z,0.00
2023-03-05T00:05:26.978Z,0.00
2023-03-05T00:06:26.972Z,0.00
2023-03-05T00:07:26.965Z,0.00
2023-03-05T00:08:26.949Z,0.00
2023-03-05T00:09:26.935Z,0.00
2023-03-05T00:10:26.932Z,0.00
2023-03-05T00:11:26.918Z,0.00
2023-03-05T00:12:26.908Z,0.00
2023-03-05T00:13:26.892Z,0.00
2023-03-05T00:14:26.904Z,0.00
2023-03-05T00:15:26.872Z,0.00
2023-03-05T00:16:27.027Z,0.00
2023-03-05T00:17:26.852Z,0.00
2023-03-05T00:18:26.840Z,0.00
2023-03-05T00:19:26.833Z,0.00
2023-03-05T00:20:26.820Z,0.00
2023-03-05T00:21:26.811Z,0.00
2023-03-05T00:22:26.795Z,0.00
2023-03-05T00:23:26.892Z,0.00
2023-03-05T00:24:26.772Z,0.00
2023-03-05T00:25:26.762Z,0.00
2023-03-05T00:26:26.753Z,0.00
2023-03-05T00:27:26.758Z,0.00
2023-03-05T00:28:26.748Z,0.00
2023-03-05T00:29:26.735Z,0.00
2023-03-05T00:30:26.744Z,0.00
2023-03-05T00:31:26.880Z,0.00
2023-03-05T00:32:26.742Z,0.00
2023-03-05T00:33:26.683Z,0.00
2023-03-05T00:34:26.677Z,0.00
2023-03-05T00:35:26.695Z,0.00
2023-03-05T00:36:26.652Z,0.00
2023-03-05T00:37:26.646Z,0.00
2023-03-05T00:38:26.633Z,0.00
2023-03-05T00:39:26.624Z,0.00
2023-03-05T00:40:26.683Z,0.00
2023-03-05T00:41:26.604Z,0.00
2023-03-05T00:42:26.597Z,0.00
2023-03-05T00:43:26.584Z,0.00
2023-03-05T00:44:26.572Z,0.00
2023-03-05T00:45:26.560Z,0.00
2023-03-05T00:46:26.615Z,0.00
2023-03-05T00:47:26.540Z,0.00
2023-03-05T00:48:26.529Z,0.00
2023-03-05T00:49:26.519Z,0.00
2023-03-05T00:50:26.519Z,0.00
2023-03-05T00:51:26.497Z,0.00
2023-03-05T00:52:26.490Z,0.00
2023-03-05T00:53:26.479Z,0.00
2023-03-05T00:54:26.469Z,0.00
2023-03-05T00:55:26.458Z,0.00
2023-03-05T00:56:26.452Z,0.00
2023-03-05T00:57:26.441Z,0.00
2023-03-05T00:58:26.427Z,0.00
2023-03-05T00:59:26.416Z,0.00
2023-03-05T01:00:26.403Z,0.00
2023-03-05T01:01:26.426Z,0.00
2023-03-05T01:02:26.406Z,0.00
2023-03-05T01:03:26.377Z,0.00
2023-03-05T01:04:26.362Z,0.00
2023-03-05T01:05:26.366Z,0.00
2023-03-05T01:06:26.333Z,0.00
2023-03-05T01:07:26.323Z,0.00
2023-03-05T01:08:26.315Z,0.00
2023-03-05T01:09:26.311Z,0.00
2023-03-05T01:10:26.288Z,0.00
2023-03-05T01:11:26.280Z,0.00
2023-03-05T01:12:26.277Z,0.00
2023-03-05T01:13:26.353Z,0.00
2023-03-05T01:14:26.241Z,0.00
2023-03-05T01:15:26.229Z,0.00
2023-03-05T01:16:26.278Z,0.00
2023-03-05T01:17:26.206Z,0.00
2023-03-05T01:18:26.219Z,0.00
2023-03-05T01:19:26.185Z,0.00
2023-03-05T01:20:26.178Z,0.00
2023-03-05T01:21:26.163Z,0.00
2023-03-05T01:22:26.160Z,0.00
2023-03-05T01:23:26.148Z,0.00
2023-03-05T01:24:26.134Z,0.00
2023-03-05T01:25:26.124Z,0.00
2023-03-05T01:26:26.114Z,0.00
2023-03-05T01:27:26.100Z,0.00
2023-03-05T01:28:26.195Z,0.00
2023-03-05T01:29:26.077Z,0.00
2023-03-05T01:30:26.067Z,0.00
2023-03-05T01:31:26.107Z,0.00
2023-03-05T01:32:26.111Z,0.00
2023-03-05T01:33:26.039Z,0.00
2023-03-05T01:34:26.052Z,0.00
2023-03-05T01:35:26.077Z,0.00
2023-03-05T01:36:26.013Z,0.00
2023-03-05T01:37:25.997Z,0.00
2023-03-05T01:38:25.986Z,0.00
2023-03-05T01:39:25.984Z,0.00
2023-03-05T01:40:25.965Z,0.00
2023-03-05T01:41:25.957Z,0.00
2023-03-05T01:42:25.946Z,0.00
2023-03-05T01:43:25.939Z,0.00
2023-03-05T01:44:25.921Z,0.00
2023-03-05T01:45:25.965Z,0.00
2023-03-05T01:46:25.903Z,0.00
2023-03-05T01:47:25.899Z,0.00
2023-03-05T01:48:25.885Z,0.00
2023-03-05T01:49:25.870Z,0.00
2023-03-05T01:50:25.884Z,0.00
2023-03-05T01:51:25.855Z,0.00
2023-03-05T01:52:25.841Z,0.00
2023-03-05T01:53:25.829Z,0.00
2023-03-05T01:54:25.818Z,0.00
2023-03-05T01:55:25.812Z,0.00
2023-03-05T01:56:25.799Z,0.00
2023-03-05T01:57:25.791Z,0.00
2023-03-05T01:58:25.777Z,0.00
2023-03-05T01:59:25.773Z,0.00
2023-03-05T02:00:25.753Z,0.00
2023-03-05T02:01:25.839Z,0.00
2023-03-05T02:02:25.735Z,0.00
2023-03-05T02:03:25.766Z,0.00
2023-03-05T02:04:25.726Z,0.00
2023-03-05T02:05:25.703Z,0.00
2023-03-05T02:06:25.712Z,0.00
2023-03-05T02:07:25.685Z,0.00
2023-03-05T02:08:25.677Z,0.00
2023-03-05T02:09:25.659Z,0.00
2023-03-05T02:10:25.662Z,0.00
2023-03-05T02:11:25.639Z,0.00
2023-03-05T02:12:25.630Z,0.00
2023-03-05T02:13:25.628Z,0.00
2023-03-05T02:14:25.610Z,0.00
2023-03-05T02:15:25.613Z,0.00
2023-03-05T02:16:25.622Z,0.00
2023-03-05T02:17:25.588Z,0.00
2023-03-05T02:18:25.568Z,0.00
2023-03-05T02:19:25.564Z,0.00
2023-03-05T02:20:25.556Z,0.00
2023-03-05T02:21:25.539Z,0.00
2023-03-05T02:22:25.556Z,0.00
2023-03-05T02:23:25.519Z,0.00
2023-03-05T02:24:25.511Z,0.00
2023-03-05T02:25:25.504Z,0.00
2023-03-05T02:26:25.495Z,0.00
2023-03-05T02:27:25.477Z,0.00
2023-03-05T02:28:25.466Z,0.00
2023-03-05T02:29:25.459Z,0.00
2023-03-05T02:30:25.447Z,0.00
2023-03-05T02:31:25.460Z,0.00
2023-03-05T02:32:25.455Z,0.00
2023-03-05T02:33:25.420Z,0.00
2023-03-05T02:34:25.406Z,0.00
2023-03-05T02:35:25.474Z,0.00
2023-03-05T02:36:25.384Z,0.00
2023-03-05T02:37:25.377Z,0.00
2023-03-05T02:38:25.390Z,0.00
2023-03-05T02:39:25.357Z,0.00
2023-03-05T02:40:25.342Z,0.00
2023-03-05T02:41:25.337Z,0.00
2023-03-05T02:42:25.322Z,0.00
2023-03-05T02:43:25.315Z,0.00
2023-03-05T02:44:25.324Z,0.00
2023-03-05T02:45:25.292Z,0.00
2023-03-05T02:46:25.297Z,0.00
2023-03-05T02:47:25.272Z,0.00
2023-03-05T02:48:25.260Z,0.00
2023-03-05T02:49:25.249Z,0.00
2023-03-05T02:50:25.244Z,0.00
2023-03-05T02:51:25.229Z,0.00
2023-03-05T02:52:25.218Z,0.00
2023-03-05T02:53:25.211Z,0.00
2023-03-05T02:54:25.224Z,0.00
2023-03-05T02:55:25.194Z,0.00
2023-03-05T02:56:25.183Z,0.00
2023-03-05T02:57:25.171Z,0.00
2023-03-05T02:58:25.157Z,0.00
2023-03-05T02:59:25.150Z,0.00
2023-03-05T03:00:25.147Z,0.00
2023-03-05T03:01:25.170Z,0.00
2023-03-05T03:02:25.116Z,0.00
2023-03-05T03:03:25.186Z,0.00
2023-03-05T03:04:25.095Z,0.00
2023-03-05T03:05:25.090Z,0.00
2023-03-05T03:06:25.084Z,0.00
2023-03-05T03:07:25.070Z,0.00
2023-03-05T03:08:25.054Z,0.00
2023-03-05T03:09:25.048Z,0.00
2023-03-05T03:10:25.055Z,0.00
2023-03-05T03:11:25.047Z,0.00
2023-03-05T03:12:25.023Z,0.00
2023-03-05T03:13:25.006Z,0.00
2023-03-05T03:14:25.007Z,0.00
2023-03-05T03:15:24.985Z,0.00
2023-03-05T03:16:25.024Z,0.00
2023-03-05T03:17:24.964Z,0.00
2023-03-05T03:18:24.952Z,0.00
2023-03-05T03:19:24.964Z,0.00
2023-03-05T03:20:24.945Z,0.00
2023-03-05T03:21:24.924Z,0.00
2023-03-05T03:22:24.915Z,0.00
2023-03-05T03:23:24.902Z,0.00
2023-03-05T03:24:24.890Z,0.00
2023-03-05T03:25:24.880Z,0.00
2023-03-05T03:26:24.905Z,0.00
2023-03-05T03:27:24.865Z,0.00
2023-03-05T03:28:24.904Z,0.00
2023-03-05T03:29:24.857Z,0.00
2023-03-05T03:30:24.863Z,0.00
2023-03-05T03:31:24.839Z,0.00
2023-03-05T03:32:24.844Z,0.00
2023-03-05T03:33:24.804Z,0.00
2023-03-05T03:34:24.793Z,0.00
2023-03-05T03:35:24.816Z,0.00
2023-03-05T03:36:24.770Z,0.00
2023-03-05T03:37:24.758Z,0.00
2023-03-05T03:38:24.754Z,0.00
2023-03-05T03:39:24.743Z,0.00
2023-03-05T03:40:24.732Z,0.00
2023-03-05T03:41:24.727Z,0.00
2023-03-05T03:42:24.730Z,0.00
2023-03-05T03:43:24.704Z,0.00
2023-03-05T03:44:24.689Z,0.00
2023-03-05T03:45:24.678Z,0.00
2023-03-05T03:46:24.704Z,0.00
2023-03-05T03:47:24.661Z,0.00
2023-03-05T03:48:24.655Z,0.00
2023-03-05T03:49:24.640Z,0.00
2023-03-05T03:50:24.630Z,0.00
2023-03-05T03:51:24.616Z,0.00
2023-03-05T03:52:24.605Z,0.00
2023-03-05T03:53:24.602Z,0.00
2023-03-05T03:54:24.635Z,0.00
2023-03-05T03:55:24.582Z,0.00
2023-03-05T03:56:24.570Z,0.00
2023-03-05T03:57:24.576Z,0.00
2023-03-05T03:58:24.572Z,0.00
2023-03-05T03:59:24.540Z,0.00
2023-03-05T04:00:24.530Z,0.00
2023-03-05T04:01:24.519Z,0.00
2023-03-05T04:02:24.519Z,0.00
2023-03-05T04:03:24.502Z,0.00
2023-03-05T04:04:24.545Z,0.00
2023-03-05T04:05:24.487Z,0.00
2023-03-05T04:06:24.464Z,0.00
2023-03-05T04:07:24.457Z,0.00
2023-03-05T04:08:24.447Z,0.00
2023-03-05T04:09:24.444Z,0.00
2023-03-05T04:10:24.430Z,0.00
2023-03-05T04:11:24.415Z,0.00
2023-03-05T04:12:24.406Z,0.00
2023-03-05T04:13:24.395Z,0.00
2023-03-05T04:14:24.409Z,0.00
2023-03-05T04:15:24.380Z,0.00
2023-03-05T04:16:24.390Z,0.00
2023-03-05T04:17:24.353Z,0.00
2023-03-05T04:18:24.343Z,0.00
2023-03-05T04:19:24.334Z,0.00
2023-03-05T04:20:24.327Z,0.00
2023-03-05T04:21:24.312Z,0.00
2023-03-05T04:22:24.306Z,0.00
2023-03-05T04:23:24.293Z,0.00
2023-03-05T04:24:24.282Z,0.00
2023-03-05T04:25:24.273Z,0.00
2023-03-05T04:26:24.265Z,0.00
2023-03-05T04:27:24.252Z,0.00
2023-03-05T04:28:24.242Z,0.00
2023-03-05T04:29:24.228Z,0.00
2023-03-05T04:30:24.348Z,0.00
2023-03-05T04:31:24.250Z,0.00
2023-03-05T04:32:24.266Z,0.00
2023-03-05T04:33:24.189Z,0.00
2023-03-05T04:34:24.177Z,0.00
2023-03-05T04:35:24.204Z,0.00
2023-03-05T04:36:24.159Z,0.00
2023-03-05T04:37:24.147Z,0.00
2023-03-05T04:38:24.139Z,0.00
2023-03-05T04:39:24.125Z,0.00
2023-03-05T04:40:24.116Z,0.00
2023-03-05T04:41:24.102Z,0.00
2023-03-05T04:42:24.094Z,0.00
2023-03-05T04:43:24.080Z,0.00
2023-03-05T04:44:24.070Z,0.00
2023-03-05T04:45:24.059Z,0.00
2023-03-05T04:46:24.137Z,0.00
2023-03-05T04:47:24.038Z,0.00
2023-03-05T04:48:24.033Z,0.00
2023-03-05T04:49:24.021Z,0.00
2023-03-05T04:50:24.088Z,0.00
2023-03-05T04:51:23.997Z,0.00
2023-03-05T04:52:24.025Z,0.00
2023-03-05T04:53:23.986Z,0.00
2023-03-05T04:54:23.973Z,0.00
2023-03-05T04:55:23.956Z,0.00
2023-03-05T04:56:23.948Z,0.00
2023-03-05T04:57:24.165Z,0.00
2023-03-05T04:58:23.924Z,0.00
2023-03-05T04:59:23.916Z,0.00
2023-03-05T05:00:23.911Z,0.00
2023-03-05T05:01:24.039Z,0.00
2023-03-05T05:02:23.910Z,0.00
2023-03-05T05:03:23.878Z,0.00
2023-03-05T05:04:23.871Z,0.00
2023-03-05T05:05:23.862Z,0.00
2023-03-05T05:06:23.895Z,0.00
2023-03-05T05:07:23.844Z,0.00
2023-03-05T05:08:23.825Z,0.00
2023-03-05T05:09:23.819Z,0.00
2023-03-05T05:10:23.803Z,0.00
2023-03-05T05:11:23.796Z,0.00
2023-03-05T05:12:23.789Z,0.00
2023-03-05T05:13:23.785Z,0.00
2023-03-05T05:14:23.767Z,0.00
2023-03-05T05:15:23.756Z,0.00
2023-03-05T05:16:23.836Z,0.00
2023-03-05T05:17:23.736Z,0.00
2023-03-05T05:18:23.764Z,0.00
2023-03-05T05:19:23.783Z,0.00
2023-03-05T05:20:23.702Z,0.00
2023-03-05T05:21:23.695Z,0.00
2023-03-05T05:22:23.685Z,0.00
2023-03-05T05:23:23.759Z,0.00
2023-03-05T05:24:23.671Z,0.00
2023-03-05T05:25:23.655Z,0.00
2023-03-05T05:26:23.643Z,0.00
2023-03-05T05:27:23.631Z,0.00
2023-03-05T05:28:23.626Z,0.00
2023-03-05T05:29:23.619Z,0.00
2023-03-05T05:30:23.602Z,0.00
2023-03-05T05:31:23.634Z,0.00
2023-03-05T05:32:23.622Z,0.00
2023-03-05T05:33:23.575Z,0.00
2023-03-05T05:34:23.584Z,0.00
2023-03-05T05:35:23.599Z,0.00
2023-03-05T05:36:23.543Z,0.00
2023-03-05T05:37:23.536Z,0.00
2023-03-05T05:38:23.526Z,0.00
2023-03-05T05:39:23.517Z,0.00
2023-03-05T05:40:23.505Z,0.00
2023-03-05T05:41:23.495Z,0.00
2023-03-05T05:42:23.499Z,0.00
2023-03-05T05:43:23.476Z,0.00
2023-03-05T05:44:23.464Z,0.00
2023-03-05T05:45:23.582Z,0.00
2023-03-05T05:46:23.742Z,0.00
2023-03-05T05:47:23.441Z,0.00
2023-03-05T05:48:23.429Z,0.00
2023-03-05T05:49:23.420Z,0.00
2023-03-05T05:50:23.429Z,0.00
2023-03-05T05:51:23.401Z,0.00
2023-03-05T05:52:23.408Z,0.00
2023-03-05T05:53:23.376Z,0.00
2023-03-05T05:54:23.366Z,0.00
2023-03-05T05:55:23.361Z,0.00
2023-03-05T05:56:23.344Z,5.62
2023-03-05T05:57:23.333Z,5.62
2023-03-05T05:58:23.325Z,5.62
2023-03-05T05:59:23.319Z,5.62
2023-03-05T06:00:23.301Z,5.62
2023-03-05T06:01:23.301Z,5.62
2023-03-05T06:02:23.360Z,5.62
2023-03-05T06:03:23.348Z,5.62
2023-03-05T06:04:23.267Z,11.25
2023-03-05T06:05:23.263Z,11.25
2023-03-05T06:06:23.269Z,11.25
2023-03-05T06:07:23.228Z,11.25
2023-03-05T06:08:23.217Z,11.25
2023-03-05T06:09:23.211Z,11.25
2023-03-05T06:10:23.196Z,16.87
2023-03-05T06:11:23.192Z,16.87
2023-03-05T06:12:23.176Z,16.87
2023-03-05T06:13:23.169Z,16.87
2023-03-05T06:14:23.158Z,16.87
2023-03-05T06:15:23.149Z,22.50
2023-03-05T06:16:23.174Z,22.50
2023-03-05T06:17:30.442Z,22.50
2023-03-05T06:18:24.133Z,22.50
2023-03-05T06:19:23.116Z,22.50
2023-03-05T06:20:23.096Z,28.12
2023-03-05T06:21:23.084Z,28.12
2023-03-05T06:22:23.097Z,28.12
2023-03-05T06:23:23.069Z,28.12
2023-03-05T06:24:23.053Z,33.75
2023-03-05T06:25:23.046Z,33.75
2023-03-05T06:26:23.032Z,33.75
2023-03-05T06:27:23.031Z,33.75
2023-03-05T06:28:23.024Z,33.75
2023-03-05T06:29:23.002Z,39.37
2023-03-05T06:30:22.994Z,39.37
2023-03-05T06:31:23.021Z,39.37
2023-03-05T06:32:23.053Z,39.37
2023-03-05T06:33:22.964Z,39.37
2023-03-05T06:34:22.976Z,45.00
2023-03-05T06:35:22.997Z,45.00
2023-03-05T06:36:22.953Z,45.00
2023-03-05T06:37:22.933Z,45.00
2023-03-05T06:38:22.952Z,45.00
2023-03-05T06:39:22.901Z,50.62
2023-03-05T06:40:22.895Z,50.62
2023-03-05T06:41:22.907Z,50.62
2023-03-05T06:42:22.873Z,50.62
2023-03-05T06:43:22.865Z,50.62
2023-03-05T06:44:22.853Z,50.62
2023-03-05T06:45:22.843Z,56.25
2023-03-05T06:46:22.956Z,56.25
2023-03-05T06:47:22.818Z,56.25
2023-03-05T06:48:22.811Z,56.25
2023-03-05T06:49:22.802Z,56.25
2023-03-05T06:50:22.789Z,56.25
2023-03-05T06:51:23.793Z,61.87
2023-03-05T06:52:22.769Z,61.87
2023-03-05T06:53:22.759Z,61.87
2023-03-05T06:54:22.772Z,61.87
2023-03-05T06:55:22.736Z,61.87
2023-03-05T06:56:22.726Z,61.87
2023-03-05T06:57:22.720Z,67.50
2023-03-05T06:58:22.713Z,67.50
2023-03-05T06:59:22.698Z,67.50
2023-03-05T07:00:22.684Z,67.50
2023-03-05T07:01:22.682Z,67.50
2023-03-05T07:02:22.778Z,67.50
2023-03-05T07:03:22.657Z,73.12
2023-03-05T07:04:22.643Z,73.12
2023-03-05T07:05:22.637Z,73.12
2023-03-05T07:06:22.630Z,73.12
2023-03-05T07:07:22.630Z,73.12
2023-03-05T07:08:22.602Z,73.12
2023-03-05T07:09:22.596Z,73.12
2023-03-05T07:10:22.609Z,78.75
2023-03-05T07:11:22.575Z,78.75
2023-03-05T07:12:22.562Z,78.75
2023-03-05T07:13:22.553Z,78.75
2023-03-05T07:14:22.545Z,78.75
2023-03-05T07:15:22.530Z,78.75
2023-03-05T07:16:22.521Z,78.75
2023-03-05T07:17:22.509Z,84.37
2023-03-05T07:18:22.502Z,84.37
2023-03-05T07:19:22.491Z,84.37
2023-03-05T07:20:22.479Z,84.37
2023-03-05T07:21:22.471Z,84.37
2023-03-05T07:22:22.457Z,84.37
2023-03-05T07:23:22.464Z,84.37
2023-03-05T07:24:22.440Z,90.00
2023-03-05T07:25:22.427Z,90.00
2023-03-05T07:26:22.443Z,90.00
2023-03-05T07:27:22.405Z,90.00
2023-03-05T07:28:22.398Z,90.00
2023-03-05T07:29:22.388Z,90.00
2023-03-05T07:30:22.377Z,90.00
2023-03-05T07:31:22.461Z,90.00
2023-03-05T07:32:22.428Z,95.62
2023-03-05T07:33:22.348Z,95.62
2023-03-05T07:34:22.333Z,95.62
2023-03-05T07:35:22.333Z,101.25
2023-03-05T07:36:22.315Z,118.12
2023-03-05T07:37:22.316Z,140.62
2023-03-05T07:38:22.293Z,146.25
2023-03-05T07:39:22.281Z,151.87
2023-03-05T07:40:22.304Z,146.25
2023-03-05T07:41:22.263Z,146.25
2023-03-05T07:42:22.331Z,146.25
2023-03-05T07:43:22.244Z,151.87
2023-03-05T07:44:22.234Z,151.87
2023-03-05T07:45:22.219Z,151.87
2023-03-05T07:46:22.272Z,151.87
2023-03-05T07:47:22.203Z,151.87
2023-03-05T07:48:22.189Z,146.25
2023-03-05T07:49:22.178Z,146.25
2023-03-05T07:50:22.171Z,146.25
2023-03-05T07:51:22.178Z,146.25
2023-03-05T07:52:22.149Z,146.25
2023-03-05T07:53:22.136Z,146.25
2023-03-05T07:54:22.129Z,146.25
2023-03-05T07:55:22.120Z,151.87
2023-03-05T07:56:22.107Z,151.87
2023-03-05T07:57:22.100Z,151.87
2023-03-05T07:58:22.116Z,151.87
2023-03-05T07:59:22.074Z,157.50
2023-03-05T08:00:22.063Z,157.50
2023-03-05T08:01:22.060Z,157.50
2023-03-05T08:02:22.067Z,157.50
2023-03-05T08:03:22.034Z,157.50
2023-03-05T08:04:22.099Z,157.50
2023-03-05T08:05:22.016Z,157.50
2023-03-05T08:06:22.008Z,157.50
2023-03-05T08:07:21.994Z,157.50
2023-03-05T08:08:21.991Z,157.50
2023-03-05T08:09:21.976Z,157.50
2023-03-05T08:10:21.959Z,157.50
2023-03-05T08:11:21.955Z,157.50
2023-03-05T08:12:21.955Z,157.50
2023-03-05T08:13:21.929Z,163.12
2023-03-05T08:14:21.940Z,163.12
2023-03-05T08:15:21.904Z,163.12
2023-03-05T08:16:22.012Z,163.12
2023-03-05T08:17:21.886Z,163.12
2023-03-05T08:18:21.892Z,163.12
2023-03-05T08:19:21.864Z,163.12
2023-03-05T08:20:21.852Z,168.75
2023-03-05T08:21:21.867Z,168.75
2023-03-05T08:22:21.837Z,168.75
2023-03-05T08:23:21.827Z,168.75
2023-03-05T08:24:21.812Z,168.75
2023-03-05T08:25:21.801Z,174.37
2023-03-05T08:26:21.798Z,174.37
2023-03-05T08:27:21.778Z,174.37
2023-03-05T08:28:21.789Z,174.37
2023-03-05T08:29:21.755Z,174.37
2023-03-05T08:30:21.781Z,174.37
2023-03-05T08:31:21.838Z,180.00
2023-03-05T08:32:21.776Z,180.00
2023-03-05T08:33:21.715Z,180.00
2023-03-05T08:34:21.707Z,180.00
2023-03-05T08:35:21.846Z,180.00
2023-03-05T08:36:21.688Z,185.62
2023-03-05T08:37:21.673Z,191.25
2023-03-05T08:38:21.666Z,191.25
2023-03-05T08:39:21.657Z,191.25
2023-03-05T08:40:21.641Z,191.25
2023-03-05T08:41:21.630Z,191.25
2023-03-05T08:42:21.622Z,191.25
2023-03-05T08:43:21.610Z,191.25
2023-03-05T08:44:21.601Z,191.25
2023-03-05T08:45:21.594Z,196.87
2023-03-05T08:46:21.631Z,196.87
2023-03-05T08:47:21.568Z,196.87
2023-03-05T08:48:21.561Z,196.87
2023-03-05T08:49:21.554Z,196.87
2023-03-05T08:50:21.545Z,202.50
2023-03-05T08:51:21.532Z,213.75
2023-03-05T08:52:21.527Z,225.00
2023-03-05T08:53:21.509Z,225.00
2023-03-05T08:54:21.507Z,236.25
2023-03-05T08:55:21.487Z,253.12
2023-03-05T08:56:21.479Z,258.75
2023-03-05T08:57:21.468Z,253.12
2023-03-05T08:58:21.455Z,236.25
2023-03-05T08:59:21.445Z,230.62
2023-03-05T09:00:21.442Z,230.62
2023-03-05T09:01:21.440Z,253.12
2023-03-05T09:02:21.439Z,275.62
2023-03-05T09:03:21.406Z,281.25
2023-03-05T09:04:21.397Z,281.25
2023-03-05T09:05:21.383Z,298.12
2023-03-05T09:06:21.412Z,343.12
2023-03-05T09:07:21.363Z,360.00
2023-03-05T09:08:21.354Z,348.75
2023-03-05T09:09:21.342Z,326.25
2023-03-05T09:10:21.349Z,309.37
2023-03-05T09:11:21.324Z,292.50
2023-03-05T09:12:21.315Z,286.87
2023-03-05T09:13:21.306Z,286.87
2023-03-05T09:14:21.290Z,286.87
2023-03-05T09:15:21.280Z,281.25
2023-03-05T09:16:21.297Z,281.25
2023-03-05T09:17:21.260Z,275.62
2023-03-05T09:18:21.274Z,270.00
2023-03-05T09:19:21.237Z,270.00
2023-03-05T09:20:21.234Z,275.62
2023-03-05T09:21:21.215Z,281.25
2023-03-05T09:22:21.222Z,286.87
2023-03-05T09:23:21.199Z,292.50
2023-03-05T09:24:21.237Z,292.50
2023-03-05T09:25:21.174Z,286.87
2023-03-05T09:26:21.168Z,281.25
2023-03-05T09:27:21.155Z,281.25
2023-03-05T09:28:21.144Z,286.87
2023-03-05T09:29:21.136Z,286.87
2023-03-05T09:30:21.125Z,286.87
2023-03-05T09:31:21.138Z,292.50
2023-03-05T09:32:21.130Z,292.50
2023-03-05T09:33:21.094Z,298.12
2023-03-05T09:34:21.113Z,303.75
2023-03-05T09:35:21.111Z,309.37
2023-03-05T09:36:21.067Z,309.37
2023-03-05T09:37:21.057Z,309.37
2023-03-05T09:38:21.043Z,309.37
2023-03-05T09:39:21.035Z,303.75
2023-03-05T09:40:21.034Z,309.37
2023-03-05T09:41:21.013Z,320.62
2023-03-05T09:42:21.003Z,331.87
2023-03-05T09:43:20.999Z,337.50
2023-03-05T09:44:20.991Z,348.75
2023-03-05T09:45:20.974Z,343.12
2023-03-05T09:46:20.964Z,348.75
2023-03-05T09:47:20.951Z,354.37
2023-03-05T09:48:20.948Z,354.37
2023-03-05T09:49:20.938Z,360.00
2023-03-05T09:50:20.949Z,354.37
2023-03-05T09:51:20.911Z,348.75
2023-03-05T09:52:20.900Z,360.00
2023-03-05T09:53:20.893Z,382.50
2023-03-05T09:54:20.880Z,405.00
2023-03-05T09:55:20.875Z,421.87
2023-03-05T09:56:20.861Z,433.12
2023-03-05T09:57:20.855Z,455.62
2023-03-05T09:58:20.842Z,517.50
2023-03-05T09:59:20.848Z,596.25
2023-03-05T10:00:20.889Z,641.25
2023-03-05T10:01:20.814Z,680.62
2023-03-05T10:02:20.813Z,652.50
2023-03-05T10:03:20.889Z,641.25
2023-03-05T10:04:20.861Z,624.37
2023-03-05T10:05:20.774Z,590.62
2023-03-05T10:06:20.794Z,568.12
2023-03-05T10:07:20.762Z,562.50
2023-03-05T10:08:20.750Z,579.37
2023-03-05T10:09:20.734Z,562.50
2023-03-05T10:10:20.746Z,573.75
2023-03-05T10:11:20.712Z,585.00
2023-03-05T10:12:20.702Z,601.87
2023-03-05T10:13:20.695Z,590.62
2023-03-05T10:14:20.683Z,579.37
2023-03-05T10:15:20.673Z,562.50
2023-03-05T10:16:20.706Z,568.12
2023-03-05T10:17:20.655Z,562.50
2023-03-05T10:18:20.651Z,551.25
2023-03-05T10:19:20.634Z,551.25
2023-03-05T10:20:20.734Z,523.12
2023-03-05T10:21:20.615Z,545.62
2023-03-05T10:22:20.664Z,556.87
2023-03-05T10:23:20.596Z,562.50
2023-03-05T10:24:20.582Z,568.12
2023-03-05T10:25:20.574Z,579.37
2023-03-05T10:26:20.573Z,590.62
2023-03-05T10:27:20.669Z,596.25
2023-03-05T10:28:20.544Z,641.25
2023-03-05T10:29:20.538Z,590.62
2023-03-05T10:30:20.522Z,601.87
2023-03-05T10:31:20.525Z,635.62
2023-03-05T10:32:20.703Z,562.50
2023-03-05T10:33:20.491Z,551.25
2023-03-05T10:34:20.485Z,556.87
2023-03-05T10:35:20.536Z,568.12
2023-03-05T10:36:20.465Z,585.00
2023-03-05T10:37:20.454Z,624.37
2023-03-05T10:38:20.470Z,646.87
2023-03-05T10:39:20.439Z,646.87
2023-03-05T10:40:20.431Z,618.75
2023-03-05T10:41:20.415Z,624.37
2023-03-05T10:42:20.415Z,641.25
2023-03-05T10:43:20.401Z,596.25
2023-03-05T10:44:20.392Z,624.37
2023-03-05T10:45:20.393Z,601.87
2023-03-05T10:46:20.381Z,618.75
2023-03-05T10:47:20.361Z,680.62
2023-03-05T10:48:20.353Z,714.37
2023-03-05T10:49:20.341Z,691.87
2023-03-05T10:50:20.364Z,720.00
2023-03-05T10:51:20.326Z,697.50
2023-03-05T10:52:20.316Z,731.25
2023-03-05T10:53:20.301Z,753.75
2023-03-05T10:54:20.319Z,736.87
2023-03-05T10:55:20.285Z,776.25
2023-03-05T10:56:20.278Z,787.50
2023-03-05T10:57:20.275Z,776.25
2023-03-05T10:58:20.258Z,793.12
2023-03-05T10:59:20.246Z,798.75
2023-03-05T11:00:20.236Z,810.00
2023-03-05T11:01:20.253Z,759.37
2023-03-05T11:02:20.341Z,759.37
2023-03-05T11:03:20.207Z,759.37
2023-03-05T11:04:20.189Z,793.12
2023-03-05T11:05:20.205Z,787.50
2023-03-05T11:06:20.169Z,776.25
2023-03-05T11:07:20.160Z,849.37
2023-03-05T11:08:20.183Z,905.62
2023-03-05T11:09:20.140Z,843.75
2023-03-05T11:10:20.153Z,815.62
2023-03-05T11:11:20.128Z,736.87
2023-03-05T11:12:20.113Z,804.37
2023-03-05T11:14:44.286Z,810.00
2023-03-05T11:14:45.707Z,810.00
2023-03-05T11:15:45.717Z,826.87
2023-03-05T11:16:45.687Z,855.00
2023-03-05T11:19:08.268Z,877.50
2023-03-05T11:19:09.687Z,877.50
2023-03-05T11:20:09.683Z,894.37
2023-03-05T11:21:09.817Z,883.12
2023-03-05T11:24:29.759Z,866.25
2023-03-05T11:24:31.168Z,860.62
2023-03-05T11:25:31.198Z,871.87
2023-03-05T11:27:57.132Z,888.75
2023-03-05T11:27:58.555Z,888.75
2023-03-05T11:28:58.549Z,933.75
2023-03-05T11:29:58.534Z,900.00
2023-03-05T11:30:58.546Z,871.87
2023-03-05T16:01:33.524Z,669.37
2023-03-05T16:01:35.023Z,669.37
2023-03-05T16:06:33.690Z,618.75
2023-03-05T16:06:35.121Z,618.75
2023-03-05T16:07:35.111Z,579.37
2023-03-05T16:08:35.102Z,585.00
2023-03-05T16:09:35.089Z,562.50
2023-03-05T16:10:35.075Z,534.37
2023-03-05T16:11:35.065Z,528.75
2023-03-05T16:12:35.057Z,534.37
2023-03-05T16:13:35.059Z,545.62
2023-03-05T16:14:35.045Z,551.25
2023-03-05T16:15:35.042Z,528.75
2023-03-05T16:16:35.021Z,489.37
2023-03-05T16:17:35.038Z,472.50
2023-03-05T16:18:35.006Z,461.25
2023-03-05T16:19:35.001Z,472.50
2023-03-05T16:20:34.987Z,472.50
2023-03-05T16:21:34.976Z,455.62
2023-03-05T16:22:34.962Z,444.37
2023-03-05T16:23:34.954Z,427.50
2023-03-05T16:24:34.945Z,405.00
2023-03-05T16:25:34.946Z,405.00
2023-03-05T16:26:34.922Z,405.00
2023-03-05T16:27:34.913Z,399.37
2023-03-05T16:28:34.905Z,393.75
2023-03-05T16:29:34.894Z,371.25
2023-03-05T16:30:34.888Z,354.37
2023-03-05T16:31:34.940Z,348.75
2023-03-05T16:32:34.954Z,337.50
2023-03-05T16:33:34.880Z,326.25
2023-03-05T16:34:34.871Z,326.25
2023-03-05T16:35:34.927Z,298.12
2023-03-05T16:36:34.826Z,275.62
2023-03-05T16:37:34.818Z,275.62
2023-03-05T16:38:34.803Z,264.37
2023-03-05T16:39:34.795Z,253.12
2023-03-05T16:41:02.895Z,241.87
2023-03-05T16:41:35.794Z,230.62
2023-03-05T16:42:34.761Z,208.12
2023-03-05T16:43:34.759Z,191.25
2023-03-05T16:44:34.749Z,180.00
2023-03-05T16:45:34.731Z,157.50
2023-03-05T16:46:35.308Z,151.87
2023-03-05T16:47:34.712Z,123.75
2023-03-05T16:48:34.701Z,123.75
2023-03-05T16:49:34.718Z,118.12
2023-03-05T16:50:34.680Z,106.87
2023-03-05T16:51:34.669Z,101.25
2023-03-05T16:52:34.664Z,84.37
2023-03-05T16:53:34.653Z,56.25
2023-03-05T16:54:34.646Z,39.37
2023-03-05T16:55:34.633Z,33.75
2023-03-05T16:56:34.620Z,33.75
2023-03-05T16:57:34.607Z,28.12
2023-03-05T16:58:34.600Z,28.12
2023-03-05T16:59:34.598Z,28.12
2023-03-05T17:00:34.642Z,22.50
2023-03-05T17:01:34.574Z,22.50
2023-03-05T17:02:34.565Z,22.50
2023-03-05T17:03:34.596Z,28.12
2023-03-05T17:04:34.537Z,22.50
2023-03-05T17:05:34.554Z,28.12
2023-03-05T17:06:34.518Z,22.50
2023-03-05T17:07:34.505Z,16.87
2023-03-05T17:08:34.496Z,11.25
2023-03-05T17:09:34.487Z,11.25
2023-03-05T17:10:34.481Z,11.25
2023-03-05T17:11:34.462Z,11.25
2023-03-05T17:12:34.461Z,11.25
2023-03-05T17:13:34.440Z,5.62
2023-03-05T17:14:34.428Z,5.62
2023-03-05T17:15:34.427Z,5.62
2023-03-05T17:16:34.467Z,5.62
2023-03-05T17:17:34.401Z,5.62
2023-03-05T17:18:34.390Z,5.62
2023-03-05T17:19:34.405Z,5.62
2023-03-05T17:20:34.364Z,5.62
2023-03-05T17:21:34.381Z,0.00
2023-03-05T17:22:34.344Z,0.00
2023-03-05T17:23:34.337Z,0.00
2023-03-05T17:24:34.328Z,0.00
2023-03-05T17:25:34.313Z,0.00
2023-03-05T17:26:34.304Z,0.00
2023-03-05T17:27:36.178Z,0.00
2023-03-05T17:28:34.283Z,0.00
2023-03-05T17:29:34.271Z,0.00